Andersen AFB, Guam
Current Conditions -  °F | °C
As of 5:58 PM on Friday 19 Dec 2014 (Local Time) from PGUA Reporting Station
Overcast Overcast  
Wind Chill: 78°   Ceiling: 4500
Heat Index: 80°   Visibility: 10mi
Dew Point: 73°   Wind: 17mph
Humidity: 85%   Direction: 70°ENE
Pressure: 29.92"   Gusts: 28mph
Location:  13.58°N, 144.92°E
Report Text: PGUA 190758Z AUTO 07015G24KT 10SM FEW028 BKN045 OVC055 25/23 A2992 RMK AO2 PK WND 06035/24 RAB0732E0742 SLP122 P0003 T02540227 $
Loading
Personal Weather Stations






























Interactive Weather Map New forecast layout! Learn more

10-Day Weather Forecast

Advertisements
Track Severe Weather on mobile